createdAt,value
2018-09-05T00:02:23.912Z,64.81
2018-09-05T00:07:16.437Z,64.65
2018-09-05T00:12:09.075Z,64.91
2018-09-05T00:17:02.054Z,64.93
2018-09-05T00:21:54.867Z,65.31
2018-09-05T00:26:47.534Z,65.82
2018-09-05T00:31:40.096Z,65.76
2018-09-05T00:36:39.566Z,66.09
2018-09-05T00:41:32.142Z,66.55
2018-09-05T00:46:24.711Z,66.75
2018-09-05T00:51:17.409Z,67.47
2018-09-05T00:56:09.945Z,67.02
2018-09-05T01:01:02.508Z,67.90
2018-09-05T01:05:55.315Z,67.83
2018-09-05T01:10:48.102Z,67.92
2018-09-05T01:15:41.215Z,67.24
2018-09-05T01:20:33.807Z,67.47
2018-09-05T01:25:26.500Z,67.52
2018-09-05T01:30:19.120Z,67.69
2018-09-05T01:35:11.714Z,67.77
2018-09-05T01:40:04.487Z,68.84
2018-09-05T01:44:57.144Z,68.90
2018-09-05T01:49:49.778Z,68.90
2018-09-05T01:54:42.373Z,69.61
2018-09-05T01:59:34.986Z,69.68
2018-09-05T02:04:27.599Z,69.97
2018-09-05T02:09:20.210Z,70.37
2018-09-05T02:14:12.910Z,70.66
2018-09-05T02:19:05.518Z,71.21
2018-09-05T02:23:58.170Z,71.03
2018-09-05T02:28:51.154Z,71.83
2018-09-05T02:33:43.838Z,71.85
2018-09-05T02:38:36.520Z,72.65
2018-09-05T02:43:34.904Z,72.33
2018-09-05T02:48:27.516Z,73.12
2018-09-05T02:53:20.288Z,72.95
2018-09-05T02:58:12.814Z,73.21
2018-09-05T03:03:05.773Z,73.52
2018-09-05T03:07:58.379Z,73.75
2018-09-05T03:12:50.960Z,74.30
2018-09-05T03:17:43.568Z,74.07
2018-09-05T03:22:36.195Z,75.09
2018-09-05T03:27:28.762Z,75.01
2018-09-05T03:32:21.521Z,74.57
2018-09-05T03:37:14.092Z,75.13
2018-09-05T03:42:06.817Z,75.00
2018-09-05T03:46:59.393Z,74.83
2018-09-05T03:51:52.024Z,74.95
2018-09-05T03:56:44.541Z,75.51
2018-09-05T04:01:37.159Z,74.88
2018-09-05T04:06:29.742Z,75.76
2018-09-05T04:11:22.351Z,75.65
2018-09-05T04:16:14.918Z,75.90
2018-09-05T04:21:07.502Z,75.52
2018-09-05T04:26:00.164Z,75.53
2018-09-05T04:30:52.885Z,75.15
2018-09-05T04:35:45.451Z,76.12
2018-09-05T04:40:38.067Z,75.26
2018-09-05T04:45:30.713Z,75.39
2018-09-05T04:50:23.386Z,75.85
2018-09-05T04:55:15.981Z,76.12
2018-09-05T05:00:08.618Z,75.91
2018-09-05T05:05:01.161Z,75.94
2018-09-05T05:09:53.982Z,75.72
2018-09-05T05:14:46.719Z,76.20
2018-09-05T05:19:39.306Z,75.51
2018-09-05T05:24:31.850Z,76.15
2018-09-05T05:29:24.550Z,76.25
2018-09-05T05:34:17.696Z,75.51
2018-09-05T05:39:11.235Z,75.89
2018-09-05T05:44:03.986Z,75.13
2018-09-05T05:48:56.658Z,75.70
2018-09-05T05:53:49.281Z,74.60
2018-09-05T05:58:41.984Z,74.49
2018-09-05T06:03:34.739Z,73.86
2018-09-05T06:08:31.818Z,73.71
2018-09-05T06:13:24.489Z,73.79
2018-09-05T06:18:17.113Z,73.75
2018-09-05T06:23:09.686Z,74.09
2018-09-05T06:28:02.243Z,73.65
2018-09-05T06:32:54.939Z,73.08
2018-09-05T06:37:47.499Z,73.64
2018-09-05T06:42:40.115Z,72.88
2018-09-05T06:47:32.839Z,72.74
2018-09-05T06:52:25.443Z,73.04
2018-09-05T06:57:18.396Z,72.06
2018-09-05T07:02:11.021Z,72.37
2018-09-05T07:07:03.767Z,71.60
2018-09-05T07:11:56.362Z,70.28
2018-09-05T07:16:49.059Z,70.73
2018-09-05T07:21:41.588Z,69.73
2018-09-05T07:26:34.177Z,68.81
2018-09-05T07:31:26.788Z,66.56
2018-09-05T07:36:19.389Z,65.90
2018-09-05T07:41:12.054Z,65.39
2018-09-05T07:46:05.042Z,64.59
2018-09-05T07:50:57.772Z,64.41
2018-09-05T07:55:50.467Z,64.93
2018-09-05T08:00:43.205Z,64.45
2018-09-05T08:05:35.827Z,64.38
2018-09-05T08:10:28.432Z,64.30
2018-09-05T08:15:20.991Z,63.36
2018-09-05T08:20:13.705Z,63.87
2018-09-05T08:25:06.547Z,63.07
2018-09-05T08:29:59.236Z,62.94
2018-09-05T08:34:52.659Z,61.98
2018-09-05T08:39:45.736Z,61.33
2018-09-05T08:44:38.295Z,59.82
2018-09-05T08:49:30.865Z,59.00
2018-09-05T08:54:23.603Z,58.09
2018-09-05T08:59:16.195Z,58.62
2018-09-05T09:04:08.760Z,57.14
2018-09-05T09:09:01.424Z,57.17
2018-09-05T09:13:53.969Z,56.70
2018-09-05T09:18:46.648Z,56.14
2018-09-05T09:23:39.347Z,55.59
2018-09-05T09:28:31.914Z,53.91
2018-09-05T09:33:24.857Z,52.72
2018-09-05T09:38:18.036Z,53.04
2018-09-05T09:43:10.783Z,52.80
2018-09-05T09:48:03.886Z,52.80
2018-09-05T09:52:56.499Z,52.00
2018-09-05T09:57:49.246Z,52.42
2018-09-05T10:02:47.536Z,52.28
2018-09-05T10:07:45.753Z,52.05
2018-09-05T10:12:46.996Z,52.63
2018-09-05T10:17:39.899Z,52.20
2018-09-05T10:22:32.836Z,51.34
2018-09-05T10:27:26.283Z,49.89
2018-09-05T10:32:18.911Z,50.80
2018-09-05T10:37:11.739Z,49.66
2018-09-05T10:42:04.950Z,50.08
2018-09-05T10:46:57.534Z,48.69
2018-09-05T10:51:54.388Z,48.86
2018-09-05T10:56:47.004Z,48.38
2018-09-05T11:01:39.704Z,48.49
2018-09-05T11:06:32.317Z,47.88
2018-09-05T11:11:24.966Z,46.67
2018-09-05T11:16:17.742Z,47.03
2018-09-05T11:21:10.398Z,47.01
2018-09-05T11:26:03.048Z,46.13
2018-09-05T11:30:55.684Z,46.01
2018-09-05T11:35:48.262Z,46.27
2018-09-05T11:40:40.866Z,45.77
2018-09-05T11:45:33.530Z,45.51
2018-09-05T11:50:26.115Z,45.16
2018-09-05T11:55:18.767Z,44.55
2018-09-05T12:00:11.349Z,45.11
2018-09-05T12:05:04.025Z,44.84
2018-09-05T12:09:56.617Z,44.56
2018-09-05T12:14:49.190Z,44.17
2018-09-05T12:19:41.786Z,43.92
2018-09-05T12:25:08.981Z,43.57
2018-09-05T12:30:01.719Z,44.29
2018-09-05T12:34:54.470Z,44.25
2018-09-05T12:39:47.148Z,43.32
2018-09-05T12:44:39.804Z,43.96
2018-09-05T12:49:32.410Z,42.90
2018-09-05T12:54:25.106Z,43.49
2018-09-05T12:59:17.762Z,42.92
2018-09-05T13:04:10.391Z,43.56
2018-09-05T13:09:05.839Z,43.02
2018-09-05T13:13:58.785Z,43.86
2018-09-05T13:18:51.294Z,43.21
2018-09-05T13:23:43.987Z,42.79
2018-09-05T13:28:36.758Z,43.66
2018-09-05T13:33:29.335Z,42.77
2018-09-05T13:38:22.086Z,43.57
2018-09-05T13:43:14.830Z,43.17
2018-09-05T13:48:07.505Z,42.65
2018-09-05T13:53:00.109Z,42.48
2018-09-05T13:57:52.659Z,43.17
2018-09-05T14:02:46.412Z,41.70
2018-09-05T14:07:38.970Z,41.32
2018-09-05T14:12:31.576Z,41.54
2018-09-05T14:17:24.283Z,41.51
2018-09-05T14:22:16.900Z,41.10
2018-09-05T14:27:09.694Z,39.74
2018-09-05T14:32:02.285Z,40.03
2018-09-05T14:36:54.916Z,39.57
2018-09-05T14:41:47.518Z,39.19
2018-09-05T14:46:40.171Z,39.88
2018-09-05T14:51:33.014Z,40.20
2018-09-05T14:56:25.735Z,38.75
2018-09-05T15:01:18.500Z,39.65
2018-09-05T15:06:11.161Z,39.42
2018-09-05T15:11:03.887Z,39.36
2018-09-05T15:15:56.576Z,39.70
2018-09-05T15:20:49.232Z,39.45
2018-09-05T15:25:42.185Z,39.72
2018-09-05T15:30:34.819Z,40.13
2018-09-05T15:35:27.398Z,39.73
2018-09-05T15:40:20.084Z,39.57
2018-09-05T15:45:12.763Z,40.43
2018-09-05T15:50:05.497Z,39.83
2018-09-05T15:54:57.963Z,40.38
2018-09-05T15:59:51.104Z,40.43
2018-09-05T16:04:43.767Z,40.48
2018-09-05T16:09:36.339Z,40.43
2018-09-05T16:14:29.098Z,40.37
2018-09-05T16:19:21.678Z,40.43
2018-09-05T16:24:14.243Z,39.51
2018-09-05T16:29:06.896Z,39.09
2018-09-05T16:33:59.499Z,38.96
2018-09-05T16:38:52.128Z,39.05
2018-09-05T16:43:44.746Z,39.99
2018-09-05T16:48:37.469Z,39.97
2018-09-05T16:53:30.039Z,39.83
2018-09-05T16:58:22.693Z,40.01
2018-09-05T17:03:15.414Z,39.95
2018-09-05T17:08:07.963Z,39.68
2018-09-05T17:13:00.520Z,40.43
2018-09-05T17:17:53.176Z,39.80
2018-09-05T17:22:45.764Z,40.71
2018-09-05T17:27:38.299Z,40.92
2018-09-05T17:32:30.895Z,41.08
2018-09-05T17:37:23.451Z,41.33
2018-09-05T17:42:16.008Z,40.42
2018-09-05T17:47:08.627Z,40.60
2018-09-05T17:52:01.200Z,41.03
2018-09-05T17:56:53.794Z,42.03
2018-09-05T18:01:46.427Z,42.58
2018-09-05T18:06:39.058Z,41.61
2018-09-05T18:11:31.700Z,41.54
2018-09-05T18:16:24.375Z,41.76
2018-09-05T18:21:17.011Z,42.45
2018-09-05T18:26:09.920Z,41.95
2018-09-05T18:31:02.535Z,42.78
2018-09-05T18:35:55.798Z,42.29
2018-09-05T18:40:48.326Z,42.67
2018-09-05T18:45:40.985Z,43.42
2018-09-05T18:50:33.664Z,43.12
2018-09-05T18:55:26.260Z,44.19
2018-09-05T19:00:18.867Z,44.36
2018-09-05T19:05:11.577Z,44.78
2018-09-05T19:10:04.186Z,44.52
2018-09-05T19:14:56.818Z,44.95
2018-09-05T19:19:49.392Z,46.41
2018-09-05T19:24:42.159Z,46.59
2018-09-05T19:29:34.744Z,47.79
2018-09-05T19:34:27.334Z,48.12
2018-09-05T19:39:19.915Z,48.82
2018-09-05T19:44:12.798Z,48.84
2018-09-05T19:49:05.408Z,49.09
2018-09-05T19:53:57.950Z,50.50
2018-09-05T19:58:50.551Z,50.07
2018-09-05T20:03:43.103Z,51.16
2018-09-05T20:08:35.817Z,51.60
2018-09-05T20:13:28.448Z,52.34
2018-09-05T20:18:21.203Z,52.45
2018-09-05T20:23:13.812Z,53.17
2018-09-05T20:28:06.501Z,53.62
2018-09-05T20:32:59.117Z,53.61
2018-09-05T20:37:51.674Z,54.07
2018-09-05T20:42:44.457Z,54.70
2018-09-05T20:47:37.049Z,54.16
2018-09-05T20:52:29.655Z,55.31
2018-09-05T20:57:22.282Z,55.59
2018-09-05T21:02:14.839Z,55.30
2018-09-05T21:07:07.454Z,55.07
2018-09-05T21:12:00.232Z,56.33
2018-09-05T21:16:52.882Z,55.80
2018-09-05T21:21:45.432Z,56.80
2018-09-05T21:26:38.218Z,57.04
2018-09-05T21:31:30.699Z,57.02
2018-09-05T21:36:23.353Z,56.94
2018-09-05T21:41:15.908Z,57.47
2018-09-05T21:46:08.528Z,57.69
2018-09-05T21:51:01.121Z,58.20
2018-09-05T21:55:53.768Z,57.68
2018-09-05T22:00:47.324Z,58.35
2018-09-05T22:05:39.886Z,58.60
2018-09-05T22:10:32.397Z,58.86
2018-09-05T22:15:24.967Z,58.99
2018-09-05T22:20:17.476Z,58.75
2018-09-05T22:25:10.013Z,59.35
2018-09-05T22:30:02.557Z,59.74
2018-09-05T22:34:55.402Z,59.40
2018-09-05T22:39:47.962Z,59.92
2018-09-05T22:44:58.237Z,60.20
2018-09-05T22:51:13.289Z,60.05
2018-09-05T22:56:37.868Z,59.82
2018-09-05T23:01:53.843Z,60.05
2018-09-05T23:07:03.819Z,60.17
2018-09-05T23:12:23.034Z,60.16
2018-09-05T23:18:33.060Z,60.36
2018-09-05T23:23:43.219Z,61.19
2018-09-05T23:28:36.549Z,61.40
2018-09-05T23:33:29.176Z,61.63
2018-09-05T23:38:21.812Z,61.32
2018-09-05T23:43:14.527Z,62.32
2018-09-05T23:48:07.195Z,61.56
2018-09-05T23:52:59.826Z,61.76
2018-09-05T23:57:52.411Z,62.23
